createdAt,value
2022-11-05T00:00:15.195Z,16.00
2022-11-05T00:01:15.223Z,16.50
2022-11-05T00:02:15.190Z,18.30
2022-11-05T00:03:15.161Z,14.90
2022-11-05T00:04:15.180Z,13.60
2022-11-05T00:05:15.069Z,18.90
2022-11-05T00:06:15.041Z,13.40
2022-11-05T00:07:15.017Z,14.90
2022-11-05T00:08:14.990Z,12.90
2022-11-05T00:09:14.970Z,15.60
2022-11-05T00:10:14.940Z,17.10
2022-11-05T00:11:18.045Z,16.30
2022-11-05T00:12:14.887Z,16.00
2022-11-05T00:13:14.862Z,16.70
2022-11-05T00:14:14.843Z,17.00
2022-11-05T00:15:14.811Z,18.90
2022-11-05T00:16:14.786Z,16.30
2022-11-05T00:17:14.763Z,14.30
2022-11-05T00:18:14.738Z,18.30
2022-11-05T00:19:14.709Z,16.50
2022-11-05T00:20:14.785Z,17.00
2022-11-05T00:21:14.658Z,15.20
2022-11-05T00:22:14.631Z,12.60
2022-11-05T00:23:14.607Z,14.30
2022-11-05T00:24:14.578Z,14.80
2022-11-05T00:25:14.559Z,19.90
2022-11-05T00:26:14.529Z,18.70
2022-11-05T00:27:14.504Z,14.10
2022-11-05T00:28:14.480Z,17.00
2022-11-05T00:29:14.454Z,12.50
2022-11-05T00:30:14.434Z,12.80
2022-11-05T00:31:14.499Z,13.10
2022-11-05T00:32:14.375Z,11.50
2022-11-05T00:33:14.350Z,17.00
2022-11-05T00:34:14.324Z,13.10
2022-11-05T00:35:14.300Z,12.00
2022-11-05T00:36:14.291Z,13.90
2022-11-05T00:37:14.250Z,20.00
2022-11-05T00:38:14.220Z,16.00
2022-11-05T00:39:14.196Z,15.70
2022-11-05T00:40:14.169Z,15.20
2022-11-05T00:41:14.149Z,14.60
2022-11-05T00:42:14.120Z,16.70
2022-11-05T00:43:14.212Z,13.60
2022-11-05T00:44:14.070Z,15.50
2022-11-05T00:45:14.043Z,18.40
2022-11-05T00:46:14.019Z,15.00
2022-11-05T00:47:13.990Z,12.10
2022-11-05T00:48:13.962Z,15.30
2022-11-05T00:49:13.940Z,13.00
2022-11-05T00:50:13.913Z,12.80
2022-11-05T00:51:13.893Z,15.10
2022-11-05T00:52:13.876Z,15.40
2022-11-05T00:53:14.046Z,20.00
2022-11-05T00:54:13.808Z,22.30
2022-11-05T00:55:13.781Z,15.70
2022-11-05T00:56:13.754Z,17.90
2022-11-05T00:57:13.735Z,12.50
2022-11-05T00:58:13.705Z,17.40
2022-11-05T00:59:13.680Z,12.20
2022-11-05T01:00:13.652Z,17.50
2022-11-05T01:01:13.663Z,13.50
2022-11-05T01:02:13.753Z,16.20
2022-11-05T01:03:14.045Z,12.70
2022-11-05T01:04:13.549Z,16.10
2022-11-05T01:05:13.526Z,15.20
2022-11-05T01:06:13.498Z,15.90
2022-11-05T01:07:13.474Z,13.50
2022-11-05T01:08:13.465Z,14.50
2022-11-05T01:09:13.426Z,13.80
2022-11-05T01:10:13.395Z,16.60
2022-11-05T01:11:13.370Z,15.80
2022-11-05T01:12:13.348Z,15.10
2022-11-05T01:13:13.653Z,14.00
2022-11-05T01:14:13.293Z,17.10
2022-11-05T01:15:13.266Z,15.50
2022-11-05T01:16:13.244Z,13.60
2022-11-05T01:17:13.216Z,18.20
2022-11-05T01:18:13.188Z,14.80
2022-11-05T01:19:13.166Z,14.60
2022-11-05T01:20:13.136Z,18.80
2022-11-05T01:21:13.109Z,15.50
2022-11-05T01:22:13.083Z,14.90
2022-11-05T01:23:13.850Z,13.80
2022-11-05T01:24:13.047Z,18.10
2022-11-05T01:25:13.010Z,15.40
2022-11-05T01:26:12.980Z,16.00
2022-11-05T01:27:12.955Z,12.30
2022-11-05T01:28:12.928Z,13.10
2022-11-05T01:29:13.026Z,13.00
2022-11-05T01:30:12.880Z,18.00
2022-11-05T01:31:12.873Z,16.40
2022-11-05T01:32:12.823Z,15.50
2022-11-05T01:33:13.148Z,12.60
2022-11-05T01:34:12.772Z,16.70
2022-11-05T01:35:12.749Z,14.00
2022-11-05T01:36:12.719Z,15.50
2022-11-05T01:37:12.698Z,13.90
2022-11-05T01:38:12.671Z,16.80
2022-11-05T01:39:12.649Z,15.50
2022-11-05T01:40:12.641Z,17.30
2022-11-05T01:41:12.592Z,16.60
2022-11-05T01:42:12.563Z,14.50
2022-11-05T01:43:12.830Z,13.10
2022-11-05T01:44:12.514Z,17.30
2022-11-05T01:45:12.489Z,15.30
2022-11-05T01:46:12.465Z,16.60
2022-11-05T01:47:12.435Z,15.70
2022-11-05T01:48:12.409Z,16.80
2022-11-05T01:49:12.384Z,15.80
2022-11-05T01:50:12.356Z,13.10
2022-11-05T01:51:12.333Z,12.50
2022-11-05T01:52:12.307Z,16.50
2022-11-05T01:53:12.930Z,15.30
2022-11-05T01:54:12.254Z,13.90
2022-11-05T01:55:12.231Z,13.90
2022-11-05T01:56:12.220Z,16.90
2022-11-05T01:57:12.175Z,16.20
2022-11-05T01:58:12.147Z,10.40
2022-11-05T01:59:12.125Z,16.90
2022-11-05T02:00:12.101Z,12.00
2022-11-05T02:01:12.075Z,13.00
2022-11-05T02:02:12.225Z,12.30
2022-11-05T02:03:12.455Z,11.60
2022-11-05T02:04:11.992Z,14.60
2022-11-05T02:05:11.967Z,15.10
2022-11-05T02:06:11.940Z,12.00
2022-11-05T02:07:11.917Z,13.90
2022-11-05T02:08:11.891Z,11.10
2022-11-05T02:09:11.862Z,12.60
2022-11-05T02:10:11.835Z,11.20
2022-11-05T02:11:11.811Z,13.70
2022-11-05T02:12:11.804Z,12.30
2022-11-05T02:13:12.123Z,13.40
2022-11-05T02:14:11.733Z,15.40
2022-11-05T02:15:11.705Z,13.20
2022-11-05T02:16:11.679Z,12.80
2022-11-05T02:17:11.653Z,14.20
2022-11-05T02:18:11.626Z,11.70
2022-11-05T02:19:11.601Z,14.80
2022-11-05T02:20:11.575Z,13.30
2022-11-05T02:21:11.550Z,15.10
2022-11-05T02:22:11.524Z,10.60
2022-11-05T02:23:11.900Z,13.70
2022-11-05T02:24:11.473Z,12.00
2022-11-05T02:25:11.445Z,12.10
2022-11-05T02:26:11.424Z,12.80
2022-11-05T02:27:14.013Z,14.20
2022-11-05T02:28:11.451Z,13.50
2022-11-05T02:29:11.339Z,15.20
2022-11-05T02:30:11.311Z,13.30
2022-11-05T02:31:11.287Z,15.20
2022-11-05T02:32:11.258Z,13.10
2022-11-05T02:33:11.527Z,12.80
2022-11-05T02:34:11.207Z,13.10
2022-11-05T02:35:11.185Z,15.10
2022-11-05T02:36:11.153Z,14.60
2022-11-05T02:37:11.129Z,14.50
2022-11-05T02:38:11.102Z,12.50
2022-11-05T02:39:11.077Z,12.80
2022-11-05T02:40:11.049Z,11.80
2022-11-05T02:41:11.025Z,15.90
2022-11-05T02:42:10.996Z,13.50
2022-11-05T02:43:11.366Z,13.00
2022-11-05T02:44:10.964Z,11.90
2022-11-05T02:45:10.920Z,9.60
2022-11-05T02:46:10.895Z,13.60
2022-11-05T02:47:14.174Z,9.70
2022-11-05T02:48:10.840Z,13.70
2022-11-05T02:49:10.815Z,9.50
2022-11-05T02:50:10.788Z,11.10
2022-11-05T02:51:10.764Z,13.50
2022-11-05T02:52:10.735Z,11.20
2022-11-05T02:53:10.950Z,9.80
2022-11-05T02:54:10.684Z,13.10
2022-11-05T02:55:10.657Z,10.10
2022-11-05T02:56:10.631Z,12.20
2022-11-05T02:57:10.606Z,12.80
2022-11-05T02:58:10.577Z,11.00
2022-11-05T02:59:10.555Z,14.40
2022-11-05T03:00:10.543Z,11.40
2022-11-05T03:01:10.502Z,14.00
2022-11-05T03:02:10.661Z,12.80
2022-11-05T03:03:10.784Z,11.10
2022-11-05T03:04:10.420Z,14.00
2022-11-05T03:05:10.394Z,9.00
2022-11-05T03:06:10.368Z,10.10
2022-11-05T03:07:10.340Z,9.80
2022-11-05T03:08:10.317Z,14.60
2022-11-05T03:09:10.290Z,14.20
2022-11-05T03:10:10.264Z,10.90
2022-11-05T03:11:10.238Z,10.40
2022-11-05T03:12:10.210Z,10.60
2022-11-05T03:13:10.576Z,9.90
2022-11-05T03:14:10.155Z,15.60
2022-11-05T03:15:10.138Z,12.60
2022-11-05T03:16:10.251Z,12.00
2022-11-05T03:17:10.080Z,10.30
2022-11-05T03:18:10.052Z,9.90
2022-11-05T03:19:10.030Z,11.50
2022-11-05T03:20:09.999Z,14.30
2022-11-05T03:21:09.974Z,14.30
2022-11-05T03:22:09.950Z,9.90
2022-11-05T03:23:10.195Z,10.00
2022-11-05T03:24:09.894Z,12.00
2022-11-05T03:25:09.870Z,10.10
2022-11-05T03:26:09.843Z,13.60
2022-11-05T03:27:09.818Z,12.80
2022-11-05T03:28:09.789Z,12.40
2022-11-05T03:29:09.765Z,13.20
2022-11-05T03:30:09.737Z,11.80
2022-11-05T03:31:09.710Z,10.40
2022-11-05T03:32:09.701Z,12.00
2022-11-05T03:33:10.070Z,11.00
2022-11-05T03:34:09.631Z,11.00
2022-11-05T03:35:09.605Z,11.40
2022-11-05T03:36:09.577Z,8.60
2022-11-05T03:37:09.554Z,11.90
2022-11-05T03:38:09.526Z,10.60
2022-11-05T03:39:09.499Z,14.00
2022-11-05T03:40:09.475Z,9.90
2022-11-05T03:41:09.447Z,10.50
2022-11-05T03:42:09.420Z,12.00
2022-11-05T03:43:09.824Z,16.20
2022-11-05T03:44:09.368Z,12.70
2022-11-05T03:45:09.343Z,11.30
2022-11-05T03:46:09.316Z,12.00
2022-11-05T03:47:09.293Z,11.60
2022-11-05T03:48:09.450Z,12.30
2022-11-05T03:49:09.238Z,9.60
2022-11-05T03:50:09.211Z,9.80
2022-11-05T03:51:09.187Z,14.60
2022-11-05T03:52:09.158Z,12.00
2022-11-05T03:53:09.481Z,10.50
2022-11-05T03:54:09.107Z,9.80
2022-11-05T03:55:09.083Z,11.10
2022-11-05T03:56:09.060Z,11.80
2022-11-05T03:57:09.030Z,14.50
2022-11-05T03:58:09.008Z,10.20
2022-11-05T03:59:08.978Z,11.70
2022-11-05T04:00:08.955Z,8.70
2022-11-05T04:01:08.927Z,10.80
2022-11-05T04:02:09.114Z,11.40
2022-11-05T04:03:09.263Z,11.10
2022-11-05T04:04:08.867Z,9.50
2022-11-05T04:05:08.824Z,9.10
2022-11-05T04:06:08.797Z,12.00
2022-11-05T04:07:08.769Z,10.40
2022-11-05T04:08:13.849Z,9.00
2022-11-05T04:09:08.719Z,9.90
2022-11-05T04:10:08.694Z,9.00
2022-11-05T04:11:08.667Z,12.70
2022-11-05T04:12:08.641Z,11.90
2022-11-05T04:13:08.947Z,10.40
2022-11-05T04:14:08.589Z,11.50
2022-11-05T04:15:08.565Z,8.90
2022-11-05T04:16:08.536Z,8.40
2022-11-05T04:17:08.513Z,10.90
2022-11-05T04:18:08.483Z,11.60
2022-11-05T04:19:08.457Z,9.10
2022-11-05T04:20:08.452Z,11.50
2022-11-05T04:21:08.411Z,8.00
2022-11-05T04:22:08.381Z,11.40
2022-11-05T04:23:08.634Z,10.30
2022-11-05T04:24:08.331Z,10.60
2022-11-05T04:25:08.301Z,8.10
2022-11-05T04:26:08.279Z,9.50
2022-11-05T04:27:08.249Z,8.70
2022-11-05T04:28:08.225Z,8.50
2022-11-05T04:29:08.198Z,8.00
2022-11-05T04:30:08.173Z,8.60
2022-11-05T04:31:08.145Z,9.90
2022-11-05T04:32:08.140Z,10.50
2022-11-05T04:33:08.286Z,12.80
2022-11-05T04:34:08.069Z,7.80
2022-11-05T04:35:08.045Z,7.60
2022-11-05T04:36:08.036Z,9.30
2022-11-05T04:37:07.992Z,9.70
2022-11-05T04:38:07.964Z,7.70
2022-11-05T04:39:07.944Z,8.10
2022-11-05T04:40:07.912Z,9.30
2022-11-05T04:41:07.885Z,8.60
2022-11-05T04:42:07.861Z,8.70
2022-11-05T04:43:13.613Z,11.30
2022-11-05T04:44:07.810Z,6.10
2022-11-05T04:45:07.783Z,9.50
2022-11-05T04:46:07.759Z,8.50
2022-11-05T04:47:07.728Z,7.70
2022-11-05T04:48:07.704Z,10.00
2022-11-05T04:49:07.679Z,7.10
2022-11-05T04:50:07.652Z,6.60
2022-11-05T04:51:07.625Z,9.00
2022-11-05T04:52:07.616Z,8.30
2022-11-05T04:53:07.713Z,6.00
2022-11-05T04:54:07.550Z,7.50
2022-11-05T04:55:07.520Z,7.80
2022-11-05T04:56:07.494Z,7.30
2022-11-05T04:57:07.474Z,7.70
2022-11-05T04:58:07.445Z,5.60
2022-11-05T04:59:07.416Z,8.70
2022-11-05T05:00:07.391Z,11.60
2022-11-05T05:01:07.419Z,5.90
2022-11-05T05:02:07.423Z,7.60
2022-11-05T05:03:07.320Z,6.80
2022-11-05T05:04:07.288Z,6.50
2022-11-05T05:05:07.259Z,8.60
2022-11-05T05:06:07.237Z,7.50
2022-11-05T05:07:07.208Z,10.10
2022-11-05T05:08:07.200Z,8.80
2022-11-05T05:09:07.154Z,8.60
2022-11-05T05:10:07.130Z,8.20
2022-11-05T05:11:07.103Z,7.20
2022-11-05T05:12:07.078Z,7.70
2022-11-05T05:13:07.052Z,8.80
2022-11-05T05:14:07.027Z,7.70
2022-11-05T05:15:07.003Z,6.70
2022-11-05T05:16:06.974Z,7.80
2022-11-05T05:17:06.949Z,8.60
2022-11-05T05:18:06.921Z,9.90
2022-11-05T05:19:06.894Z,6.60
2022-11-05T05:20:06.872Z,9.40
2022-11-05T05:21:06.843Z,7.60
2022-11-05T05:22:06.816Z,9.10
2022-11-05T05:23:06.791Z,9.20
2022-11-05T05:24:06.869Z,11.60
2022-11-05T05:25:06.737Z,9.30
2022-11-05T05:26:06.714Z,12.10
2022-11-05T05:27:06.685Z,9.50
2022-11-05T05:28:06.662Z,9.70
2022-11-05T05:29:06.638Z,9.10
2022-11-05T05:30:06.607Z,8.70
2022-11-05T05:31:06.582Z,9.10
2022-11-05T05:32:06.555Z,7.40
2022-11-05T05:33:06.529Z,8.20
2022-11-05T05:34:06.505Z,9.90
2022-11-05T05:35:06.473Z,9.20
2022-11-05T05:36:11.153Z,9.60
2022-11-05T05:37:06.423Z,9.30
2022-11-05T05:38:06.399Z,9.60
2022-11-05T05:39:06.369Z,11.00
2022-11-05T05:40:06.364Z,12.40
2022-11-05T05:41:06.324Z,10.10
2022-11-05T05:42:06.299Z,8.00
2022-11-05T05:43:06.268Z,16.40
2022-11-05T05:44:06.245Z,10.70
2022-11-05T05:45:06.219Z,10.60
2022-11-05T05:46:06.188Z,11.80
2022-11-05T05:47:06.161Z,11.40
2022-11-05T05:48:06.141Z,11.20
2022-11-05T05:49:12.044Z,11.10
2022-11-05T05:50:06.081Z,12.00
2022-11-05T05:51:06.054Z,11.60
2022-11-05T05:52:06.029Z,12.10
2022-11-05T05:53:06.000Z,10.80
2022-11-05T05:54:05.996Z,9.60
2022-11-05T05:55:05.950Z,12.90
2022-11-05T05:56:05.940Z,11.60
2022-11-05T05:57:05.895Z,13.50
2022-11-05T05:58:05.872Z,12.70
2022-11-05T05:59:05.841Z,9.60
2022-11-05T06:00:05.817Z,16.50
2022-11-05T06:01:05.790Z,13.70
2022-11-05T06:02:05.986Z,11.00
2022-11-05T06:03:05.829Z,10.20
2022-11-05T06:04:05.710Z,13.30
2022-11-05T06:05:05.683Z,15.10
2022-11-05T06:06:05.661Z,11.40
2022-11-05T06:07:05.632Z,11.10
2022-11-05T06:08:05.605Z,12.50
2022-11-05T06:09:05.578Z,12.60
2022-11-05T06:10:05.550Z,11.40
2022-11-05T06:11:05.628Z,13.00
2022-11-05T06:12:05.518Z,11.90
2022-11-05T06:13:05.480Z,13.10
2022-11-05T06:14:05.447Z,12.30
2022-11-05T06:15:05.421Z,13.00
2022-11-05T06:16:05.395Z,13.50
2022-11-05T06:17:05.365Z,14.00
2022-11-05T06:18:05.343Z,12.20
2022-11-05T06:19:05.311Z,11.10
2022-11-05T06:20:05.287Z,12.60
2022-11-05T06:21:05.261Z,11.90
2022-11-05T06:22:05.236Z,11.50
2022-11-05T06:23:05.206Z,11.40
2022-11-05T06:24:05.185Z,11.20
2022-11-05T06:25:05.157Z,13.00
2022-11-05T06:26:05.133Z,12.00
2022-11-05T06:27:05.102Z,10.60
2022-11-05T06:28:05.227Z,14.10
2022-11-05T06:29:05.051Z,14.50
2022-11-05T06:30:05.024Z,12.30
2022-11-05T06:31:04.994Z,10.80
2022-11-05T06:32:04.971Z,10.10
2022-11-05T06:33:04.987Z,12.20
2022-11-05T06:34:04.916Z,9.50
2022-11-05T06:35:04.893Z,11.80
2022-11-05T06:36:04.865Z,13.80
2022-11-05T06:37:04.838Z,11.40
2022-11-05T06:38:04.812Z,14.20
2022-11-05T06:39:04.782Z,13.10
2022-11-05T06:40:04.758Z,10.60
2022-11-05T06:41:10.100Z,11.00
2022-11-05T06:42:17.780Z,11.60
2022-11-05T06:43:04.678Z,10.60
2022-11-05T06:44:04.678Z,13.20
2022-11-05T06:45:04.625Z,12.70
2022-11-05T06:46:04.604Z,10.00
2022-11-05T06:47:04.571Z,13.40
2022-11-05T06:48:04.545Z,12.60
2022-11-05T06:49:04.520Z,10.40
2022-11-05T06:50:04.498Z,10.80
2022-11-05T06:51:04.467Z,12.40
2022-11-05T06:52:04.443Z,11.30
2022-11-05T06:53:04.446Z,12.20
2022-11-05T06:54:04.388Z,10.80
2022-11-05T06:55:04.362Z,14.40
2022-11-05T06:56:04.337Z,14.50
2022-11-05T06:57:04.309Z,13.30
2022-11-05T06:58:04.284Z,10.40
2022-11-05T06:59:04.256Z,10.70
2022-11-05T07:00:07.857Z,9.50
2022-11-05T07:01:04.303Z,9.30
2022-11-05T07:02:04.220Z,11.70
2022-11-05T07:03:04.152Z,13.70
2022-11-05T07:04:04.125Z,13.30
2022-11-05T07:05:04.110Z,10.20
2022-11-05T07:06:04.074Z,10.80
2022-11-05T07:07:04.053Z,12.50
2022-11-05T07:08:04.024Z,12.90
2022-11-05T07:09:03.995Z,11.50
2022-11-05T07:10:03.971Z,9.90
2022-11-05T07:11:03.941Z,9.60
2022-11-05T07:12:03.918Z,9.80
2022-11-05T07:13:08.096Z,12.60
2022-11-05T07:14:03.863Z,9.40
2022-11-05T07:15:03.837Z,12.20
2022-11-05T07:16:03.837Z,10.30
2022-11-05T07:17:03.789Z,13.30
2022-11-05T07:18:03.764Z,12.20
2022-11-05T07:19:03.732Z,10.80
2022-11-05T07:20:03.711Z,12.30
2022-11-05T07:21:03.687Z,13.70
2022-11-05T07:22:03.655Z,12.70
2022-11-05T07:23:03.648Z,13.70
2022-11-05T07:24:03.605Z,8.50
2022-11-05T07:25:03.575Z,9.60
2022-11-05T07:26:03.550Z,10.40
2022-11-05T07:27:03.522Z,10.60
2022-11-05T07:28:03.496Z,10.90
2022-11-05T07:29:03.472Z,14.60
2022-11-05T07:30:03.447Z,13.50
2022-11-05T07:31:03.418Z,13.60
2022-11-05T07:32:03.413Z,10.80
2022-11-05T07:33:03.368Z,12.30
2022-11-05T07:34:03.339Z,10.50
2022-11-05T07:35:03.312Z,10.30
2022-11-05T07:36:03.287Z,10.10
2022-11-05T07:37:03.258Z,11.40
2022-11-05T07:38:03.236Z,9.30
2022-11-05T07:39:03.208Z,10.50
2022-11-05T07:40:03.189Z,9.10
2022-11-05T07:41:03.156Z,13.40
2022-11-05T07:42:03.133Z,9.60
2022-11-05T07:43:03.103Z,11.20
2022-11-05T07:44:03.076Z,11.80
2022-11-05T07:45:03.047Z,10.10
2022-11-05T07:46:03.025Z,15.70
2022-11-05T07:47:02.998Z,9.90
2022-11-05T07:48:03.000Z,16.00
2022-11-05T07:49:02.946Z,10.10
2022-11-05T07:50:02.937Z,13.00
2022-11-05T07:51:02.899Z,11.30
2022-11-05T07:52:02.882Z,11.80
2022-11-05T07:53:02.840Z,11.40
2022-11-05T07:54:02.820Z,11.60
2022-11-05T07:55:02.809Z,10.20
2022-11-05T07:56:02.764Z,11.70
2022-11-05T07:57:02.738Z,11.50
2022-11-05T07:58:02.737Z,12.80
2022-11-05T07:59:02.689Z,13.10
2022-11-05T08:00:02.661Z,13.60
2022-11-05T08:01:02.793Z,11.50
2022-11-05T08:02:02.858Z,12.00
2022-11-05T08:03:07.752Z,13.10
2022-11-05T08:04:02.573Z,13.80
2022-11-05T08:05:02.530Z,13.40
2022-11-05T08:06:02.503Z,15.40
2022-11-05T08:07:02.652Z,16.10
2022-11-05T08:08:02.450Z,15.90
2022-11-05T08:09:02.423Z,12.80
2022-11-05T08:10:02.397Z,12.00
2022-11-05T08:11:02.385Z,17.30
2022-11-05T08:12:03.271Z,13.80
2022-11-05T08:13:02.320Z,10.40
2022-11-05T08:14:02.290Z,15.80
2022-11-05T08:15:02.264Z,10.80
2022-11-05T08:16:02.242Z,10.80
2022-11-05T08:17:02.213Z,12.40
2022-11-05T08:18:02.197Z,11.10
2022-11-05T08:19:02.162Z,13.00
2022-11-05T08:20:02.151Z,17.40
2022-11-05T08:21:02.111Z,18.20
2022-11-05T08:22:02.081Z,24.20
2022-11-05T08:23:02.094Z,28.20
2022-11-05T08:24:02.029Z,15.80
2022-11-05T08:25:06.591Z,15.50
2022-11-05T08:26:01.980Z,9.80
2022-11-05T08:27:01.976Z,10.80
2022-11-05T08:28:01.936Z,12.00
2022-11-05T08:29:02.195Z,15.00
2022-11-05T08:30:01.872Z,9.90
2022-11-05T08:31:01.846Z,9.10
2022-11-05T08:32:01.820Z,14.60
2022-11-05T08:33:01.796Z,22.60
2022-11-05T08:34:02.827Z,19.70
2022-11-05T08:35:01.744Z,13.90
2022-11-05T08:36:01.841Z,16.10
2022-11-05T08:37:01.690Z,13.90
2022-11-05T08:38:01.664Z,10.00
2022-11-05T08:39:01.639Z,12.00
2022-11-05T08:40:01.613Z,12.50
2022-11-05T08:41:01.586Z,12.40
2022-11-05T08:42:01.559Z,11.20
2022-11-05T08:43:01.535Z,10.00
2022-11-05T08:44:01.512Z,10.60
2022-11-05T08:45:01.480Z,13.30
2022-11-05T08:46:01.456Z,11.10
2022-11-05T08:47:01.429Z,11.00
2022-11-05T08:48:01.400Z,10.30
2022-11-05T08:49:01.378Z,10.90
2022-11-05T08:50:01.350Z,9.00
2022-11-05T08:51:01.328Z,12.70
2022-11-05T08:52:01.315Z,9.90
2022-11-05T08:53:01.272Z,11.70
2022-11-05T08:54:01.248Z,9.90
2022-11-05T08:55:01.222Z,8.90
2022-11-05T08:56:01.290Z,15.00
2022-11-05T08:57:01.186Z,12.50
2022-11-05T08:58:01.281Z,11.20
2022-11-05T08:59:01.176Z,11.50
2022-11-05T09:00:01.101Z,8.20
2022-11-05T09:01:04.976Z,10.70
2022-11-05T09:02:01.263Z,10.40
2022-11-05T09:03:01.159Z,11.60
2022-11-05T09:04:01.045Z,9.60
2022-11-05T09:05:00.962Z,13.20
2022-11-05T09:06:00.932Z,11.90
2022-11-05T09:07:00.908Z,10.70
2022-11-05T09:08:01.757Z,10.40
2022-11-05T09:09:00.858Z,9.60
2022-11-05T09:10:00.829Z,9.90
2022-11-05T09:11:00.857Z,13.70
2022-11-05T09:12:16.134Z,11.50
2022-11-05T09:13:00.753Z,9.20
2022-11-05T09:14:00.725Z,12.70
2022-11-05T09:15:00.708Z,10.30
2022-11-05T09:16:00.679Z,8.80
2022-11-05T09:17:00.647Z,13.00
2022-11-05T09:18:00.625Z,13.40
2022-11-05T09:19:00.597Z,12.30
2022-11-05T09:20:00.568Z,12.20
2022-11-05T09:21:00.543Z,13.20
2022-11-05T09:22:00.552Z,12.20
2022-11-05T09:23:00.494Z,11.90
2022-11-05T09:24:00.488Z,10.30
2022-11-05T09:25:00.442Z,9.80
2022-11-05T09:26:00.421Z,12.90
2022-11-05T09:27:00.393Z,9.40
2022-11-05T09:28:00.365Z,14.00
2022-11-05T09:29:00.342Z,13.60
2022-11-05T09:30:00.318Z,9.00
2022-11-05T09:31:00.292Z,13.20
2022-11-05T09:32:00.265Z,10.70
2022-11-05T09:33:00.249Z,13.30
2022-11-05T09:34:00.253Z,13.00
2022-11-05T09:35:00.256Z,13.20
2022-11-05T09:36:00.293Z,9.50
2022-11-05T09:37:00.232Z,13.10
2022-11-05T09:38:01.283Z,12.80
2022-11-05T09:39:00.099Z,11.40
2022-11-05T09:40:00.159Z,11.60
2022-11-05T09:41:00.321Z,12.10
2022-11-05T09:42:00.132Z,10.00
2022-11-05T09:43:00.006Z,12.00
2022-11-05T09:44:00.321Z,10.10
2022-11-05T09:45:00.081Z,11.10
2022-11-05T09:46:00.015Z,10.90
2022-11-05T09:47:00.009Z,12.60
2022-11-05T09:47:59.937Z,9.30
2022-11-05T09:48:59.906Z,9.90
2022-11-05T09:50:00.366Z,12.10
2022-11-05T09:50:59.837Z,10.00
2022-11-05T09:51:59.925Z,11.50
2022-11-05T09:52:59.840Z,11.70
2022-11-05T09:53:59.838Z,11.50
2022-11-05T09:54:59.749Z,11.40
2022-11-05T09:55:59.748Z,11.90
2022-11-05T09:56:59.709Z,12.40
2022-11-05T09:57:59.645Z,14.20
2022-11-05T09:58:59.718Z,11.30
2022-11-05T09:59:59.637Z,9.80
2022-11-05T10:00:59.680Z,11.70
2022-11-05T10:01:59.837Z,12.40
2022-11-05T10:02:59.552Z,9.40
2022-11-05T10:03:59.545Z,10.60
2022-11-05T10:05:02.523Z,10.60
2022-11-05T10:05:59.560Z,10.40
2022-11-05T10:06:59.515Z,10.10
2022-11-05T10:07:59.500Z,9.70
2022-11-05T10:08:59.476Z,12.50
2022-11-05T10:09:59.506Z,9.90
2022-11-05T10:10:59.592Z,11.30
2022-11-05T10:11:59.476Z,11.20
2022-11-05T10:12:59.326Z,10.50
2022-11-05T10:13:59.304Z,10.80
2022-11-05T10:14:59.251Z,10.00
2022-11-05T10:15:59.222Z,10.50
2022-11-05T10:16:59.201Z,9.10
2022-11-05T10:17:59.185Z,9.80
2022-11-05T10:18:59.156Z,9.40
2022-11-05T10:19:59.134Z,10.10
2022-11-05T10:20:59.202Z,10.00
2022-11-05T10:22:06.709Z,8.20
2022-11-05T10:22:59.074Z,10.40
2022-11-05T10:23:59.058Z,10.80
2022-11-05T10:24:59.064Z,14.90
2022-11-05T10:25:59.338Z,10.70
2022-11-05T10:26:58.982Z,11.40
2022-11-05T10:27:58.978Z,10.10
2022-11-05T10:28:58.942Z,9.20
2022-11-05T10:29:58.918Z,10.90
2022-11-05T10:30:58.900Z,13.70
2022-11-05T10:31:58.874Z,8.40
2022-11-05T10:32:58.859Z,9.60
2022-11-05T10:33:58.834Z,10.80
2022-11-05T10:34:58.812Z,10.40
2022-11-05T10:35:58.789Z,9.20
2022-11-05T10:36:58.770Z,9.10
2022-11-05T10:37:58.753Z,10.10
2022-11-05T10:38:58.729Z,9.70
2022-11-05T10:39:58.713Z,10.10
2022-11-05T10:40:58.694Z,8.90
2022-11-05T10:41:58.669Z,9.90
2022-11-05T10:42:58.647Z,10.80
2022-11-05T10:43:58.647Z,15.10
2022-11-05T10:44:58.607Z,13.20
2022-11-05T10:45:58.588Z,11.70
2022-11-05T10:46:58.562Z,10.00
2022-11-05T10:47:58.542Z,11.70
2022-11-05T10:48:58.524Z,10.20
2022-11-05T10:49:58.500Z,9.30
2022-11-05T10:50:58.483Z,10.20
2022-11-05T10:51:58.463Z,10.20
2022-11-05T10:52:58.441Z,11.00
2022-11-05T10:54:01.879Z,10.70
2022-11-05T10:54:58.402Z,11.90
2022-11-05T10:55:58.380Z,10.10
2022-11-05T10:56:58.359Z,12.40
2022-11-05T10:57:58.338Z,11.40
2022-11-05T10:58:58.322Z,8.80
2022-11-05T10:59:58.317Z,9.10
2022-11-05T11:00:58.551Z,8.40
2022-11-05T11:01:58.619Z,9.10
2022-11-05T11:02:58.253Z,8.80
2022-11-05T11:03:58.225Z,10.50
2022-11-05T11:04:58.210Z,10.20
2022-11-05T11:05:58.173Z,11.70
2022-11-05T11:06:58.578Z,12.10
2022-11-05T11:07:58.183Z,9.60
2022-11-05T11:08:58.222Z,11.10
2022-11-05T11:09:58.119Z,11.00
2022-11-05T11:10:58.250Z,11.90
2022-11-05T11:11:58.124Z,9.40
2022-11-05T11:12:58.119Z,9.70
2022-11-05T11:13:58.021Z,10.20
2022-11-05T11:14:58.048Z,11.20
2022-11-05T11:15:58.114Z,10.50
2022-11-05T11:16:58.267Z,9.20
2022-11-05T11:17:58.026Z,9.50
2022-11-05T11:18:57.996Z,7.80
2022-11-05T11:19:58.004Z,10.00
2022-11-05T11:20:57.957Z,8.70
2022-11-05T11:21:57.909Z,8.60
2022-11-05T11:22:57.917Z,9.20
2022-11-05T11:23:57.926Z,8.90
2022-11-05T11:24:57.875Z,11.40
2022-11-05T11:25:57.769Z,8.70
2022-11-05T11:26:57.751Z,8.70
2022-11-05T11:27:57.802Z,10.40
2022-11-05T11:28:57.807Z,9.40
2022-11-05T11:29:57.690Z,8.20
2022-11-05T11:30:58.112Z,9.20
2022-11-05T11:31:57.881Z,9.70
2022-11-05T11:32:57.747Z,9.90
2022-11-05T11:33:57.618Z,10.20
2022-11-05T11:34:57.548Z,12.60
2022-11-05T11:35:57.554Z,13.80
2022-11-05T11:36:57.527Z,10.60
2022-11-05T11:37:57.617Z,13.90
2022-11-05T11:38:57.498Z,10.40
2022-11-05T11:39:57.461Z,10.50
2022-11-05T11:40:57.417Z,9.40
2022-11-05T11:41:57.446Z,8.10
2022-11-05T11:42:57.479Z,9.70
2022-11-05T11:43:57.356Z,10.30
2022-11-05T11:44:57.360Z,10.50
2022-11-05T11:46:02.152Z,9.40
2022-11-05T11:46:57.275Z,9.80
2022-11-05T11:47:57.272Z,12.20
2022-11-05T11:48:57.231Z,10.70
2022-11-05T11:49:57.206Z,9.60
2022-11-05T11:50:57.192Z,11.30
2022-11-05T11:51:57.159Z,12.70
2022-11-05T11:52:57.141Z,11.60
2022-11-05T11:53:57.116Z,8.50
2022-11-05T11:54:57.104Z,13.20
2022-11-05T11:55:57.070Z,11.10
2022-11-05T11:56:57.048Z,11.10
2022-11-05T11:57:57.028Z,11.80
2022-11-05T11:58:57.005Z,12.90
2022-11-05T12:00:12.346Z,12.30
2022-11-05T12:00:56.958Z,12.20
2022-11-05T12:01:57.029Z,7.50
2022-11-05T12:03:11.870Z,12.30
2022-11-05T12:03:56.906Z,11.60
2022-11-05T12:04:56.873Z,10.50
2022-11-05T12:05:56.842Z,9.20
2022-11-05T12:06:56.819Z,10.70
2022-11-05T12:07:56.798Z,12.80
2022-11-05T12:09:03.539Z,12.00
2022-11-05T12:09:56.751Z,13.40
2022-11-05T12:10:56.729Z,11.90
2022-11-05T12:11:56.710Z,11.40
2022-11-05T12:12:56.680Z,11.90
2022-11-05T12:13:56.669Z,10.80
2022-11-05T12:14:56.634Z,11.80
2022-11-05T12:15:56.615Z,11.00
2022-11-05T12:16:56.587Z,11.40
2022-11-05T12:17:56.566Z,10.30
2022-11-05T12:18:56.541Z,9.30
2022-11-05T12:19:56.537Z,10.70
2022-11-05T12:20:58.389Z,10.80
2022-11-05T12:21:56.473Z,11.10
2022-11-05T12:22:56.450Z,6.40
2022-11-05T12:23:56.430Z,9.10
2022-11-05T12:24:56.405Z,11.40
2022-11-05T12:25:56.380Z,9.50
2022-11-05T12:26:56.366Z,9.20
2022-11-05T12:27:56.337Z,8.50
2022-11-05T12:29:17.958Z,10.30
2022-11-05T12:29:56.288Z,8.90
2022-11-05T12:30:56.265Z,7.50
2022-11-05T12:31:56.247Z,9.80
2022-11-05T12:32:56.284Z,7.30
2022-11-05T12:33:56.199Z,7.30
2022-11-05T12:34:56.173Z,10.90
2022-11-05T12:35:57.983Z,7.10
2022-11-05T12:36:56.127Z,7.80
2022-11-05T12:37:56.105Z,8.90
2022-11-05T12:38:56.078Z,9.30
2022-11-05T12:39:56.058Z,10.50
2022-11-05T12:40:56.033Z,13.70
2022-11-05T12:41:56.014Z,9.50
2022-11-05T12:42:55.991Z,9.10
2022-11-05T12:43:55.964Z,6.50
2022-11-05T12:44:55.941Z,10.20
2022-11-05T12:45:55.921Z,9.00
2022-11-05T12:46:55.894Z,7.30
2022-11-05T12:47:55.874Z,9.50
2022-11-05T12:48:55.848Z,10.10
2022-11-05T12:49:55.826Z,8.90
2022-11-05T12:50:55.799Z,8.00
2022-11-05T12:51:55.897Z,9.20
2022-11-05T12:52:55.757Z,10.80
2022-11-05T12:53:55.733Z,7.90
2022-11-05T12:54:55.710Z,7.80
2022-11-05T12:55:55.687Z,6.10
2022-11-05T12:56:55.664Z,7.90
2022-11-05T12:57:55.642Z,8.60
2022-11-05T12:58:55.615Z,6.40